Time;durP1;ratioP1;P1;durP2;ratioP2;P2;SDS_P1;SDS_P2;PMS_P1;PMS_P2;Temp;Humidity;BMP_temperature;BMP_pressure;BME280_temperature;BME280_humidity;BME280_pressure;Samples;Min_cycle;Max_cycle;Signal;HPM_P1;HPM_P2
2023/05/23 00:01:17;;;;;;;7.60;6.22;;;;;;;21.87;57.28;99328.94;4913396;29;20043;-73
2023/05/23 00:03:43;;;;;;;6.32;5.40;;;;;;;21.87;57.33;99331.59;4913054;28;20483;-73
2023/05/23 00:06:09;;;;;;;7.30;5.50;;;;;;;21.85;57.19;99336.19;4913345;29;20025;-73
2023/05/23 00:08:34;;;;;;;7.25;5.63;;;;;;;21.85;57.16;99330.88;4913246;29;20398;-72
2023/05/23 00:11:00;;;;;;;7.82;5.30;;;;;;;21.84;57.32;99334.50;4913367;29;20103;-73
2023/05/23 00:13:25;;;;;;;8.10;5.78;;;;;;;21.82;57.92;99328.41;4923811;29;20034;-73
2023/05/23 00:15:51;;;;;;;6.13;5.47;;;;;;;21.81;58.09;99329.38;4930607;29;20513;-73
2023/05/23 00:18:17;;;;;;;6.78;6.03;;;;;;;21.80;57.99;99317.03;4931982;28;20039;-73
2023/05/23 00:20:44;;;;;;;7.35;5.95;;;;;;;21.79;58.01;99313.53;4932079;29;20110;-73
2023/05/23 00:23:17;;;;;;;8.45;6.13;;;;;;;21.79;57.92;99315.34;4925446;28;20036;-73
2023/05/23 00:25:47;;;;;;;7.57;6.03;;;;;;;21.78;58.26;99313.66;4912981;29;20489;-74
2023/05/23 00:28:13;;;;;;;7.38;6.05;;;;;;;21.76;57.97;99321.72;4913076;29;20469;-72
2023/05/23 00:30:39;;;;;;;6.53;5.57;;;;;;;21.75;58.20;99317.38;4913100;29;20024;-72
2023/05/23 00:33:05;;;;;;;6.18;5.18;;;;;;;21.75;58.07;99320.03;4917474;28;20394;-72
2023/05/23 00:35:30;;;;;;;6.72;6.03;;;;;;;21.73;58.09;99317.47;4931911;29;20031;-73
2023/05/23 00:37:56;;;;;;;7.53;6.28;;;;;;;21.73;58.25;99313.94;4931871;28;20020;-73
2023/05/23 00:40:21;;;;;;;7.15;5.30;;;;;;;21.75;58.12;99313.84;4931948;28;20545;-73
2023/05/23 00:42:47;;;;;;;6.38;5.40;;;;;;;21.75;58.21;99313.84;4931795;29;20042;-73
2023/05/23 00:45:13;;;;;;;6.97;5.63;;;;;;;21.71;58.67;99311.38;4931842;28;20040;-73
2023/05/23 00:47:39;;;;;;;6.65;6.03;;;;;;;21.70;58.55;99307.03;4915866;29;20046;-72
2023/05/23 00:50:07;;;;;;;6.60;5.90;;;;;;;21.71;58.12;99311.38;4921633;29;20058;-73
2023/05/23 00:52:33;;;;;;;8.05;5.82;;;;;;;21.70;58.71;99306.19;4935112;29;20020;-73
2023/05/23 00:54:58;;;;;;;7.25;5.75;;;;;;;21.69;58.70;99299.97;4935178;28;20066;-73
2023/05/23 00:57:24;;;;;;;5.93;5.32;;;;;;;21.68;58.70;99300.94;4917914;29;20035;-73
2023/05/23 00:59:50;;;;;;;6.82;5.20;;;;;;;21.70;58.54;99296.41;4934994;29;20036;-73
2023/05/23 01:02:16;;;;;;;6.65;5.38;;;;;;;21.68;58.66;99298.28;4934704;29;20035;-72
2023/05/23 01:04:42;;;;;;;6.70;5.80;;;;;;;21.65;58.78;99295.81;4934990;29;20023;-73
2023/05/23 01:07:09;;;;;;;6.10;4.65;;;;;;;21.65;58.84;99293.16;4935089;29;20085;-73
2023/05/23 01:09:35;;;;;;;5.75;4.78;;;;;;;21.64;58.72;99291.47;4935070;28;20440;-74
2023/05/23 01:12:04;;;;;;;7.03;5.38;;;;;;;21.64;58.64;99286.16;4934871;29;20035;-72
2023/05/23 01:14:39;;;;;;;6.70;5.93;;;;;;;21.65;58.68;99281.72;4934573;29;20608;-73
2023/05/23 01:17:18;;;;;;;6.93;5.00;;;;;;;21.62;58.83;99280.09;4934992;29;20035;-73
2023/05/23 01:19:50;;;;;;;6.65;4.95;;;;;;;21.62;58.67;99277.44;4934491;29;20123;-73
2023/05/23 01:22:25;;;;;;;6.68;5.50;;;;;;;21.61;58.84;99275.75;4934811;28;20109;-73
2023/05/23 01:25:00;;;;;;;6.18;5.18;;;;;;;21.60;58.94;99274.06;4934858;28;20115;-73
2023/05/23 01:27:53;;;;;;;6.28;4.85;;;;;;;21.59;58.75;99275.00;4934662;28;20111;-73
2023/05/23 01:30:20;;;;;;;6.80;5.53;;;;;;;21.58;58.95;99287.44;4934291;29;20024;-73
2023/05/23 01:32:48;;;;;;;6.53;5.43;;;;;;;21.59;58.79;99282.94;4934297;29;20501;-73
2023/05/23 01:35:20;;;;;;;5.97;5.10;;;;;;;21.57;58.78;99279.56;4934512;28;20070;-73
2023/05/23 01:37:45;;;;;;;6.97;5.07;;;;;;;21.55;58.81;99270.84;4934421;28;20035;-74
2023/05/23 01:40:10;;;;;;;6.05;5.30;;;;;;;21.56;58.66;99277.88;4934427;29;20398;-73
2023/05/23 01:42:36;;;;;;;5.78;4.78;;;;;;;21.54;59.00;99279.75;4934492;28;20063;-73
2023/05/23 01:45:02;;;;;;;6.57;5.25;;;;;;;21.51;58.75;99272.00;4933931;29;20020;-72
2023/05/23 01:47:28;;;;;;;10.07;5.50;;;;;;;21.51;59.02;99269.34;4934229;28;20031;-73
2023/05/23 01:49:55;;;;;;;6.65;4.95;;;;;;;21.51;58.91;99264.03;4930233;28;20079;-73
2023/05/23 01:52:21;;;;;;;6.18;4.88;;;;;;;21.50;58.82;99265.00;4915467;28;20024;-73
2023/05/23 01:54:48;;;;;;;6.22;5.20;;;;;;;21.50;58.92;99267.66;4922105;28;20030;-73
2023/05/23 01:57:13;;;;;;;6.65;5.38;;;;;;;21.49;58.87;99265.97;4934078;29;20024;-72
2023/05/23 01:59:39;;;;;;;6.03;4.80;;;;;;;21.50;58.85;99257.03;4933706;28;20082;-73
2023/05/23 02:02:05;;;;;;;6.10;5.35;;;;;;;21.49;58.81;99260.66;4934091;28;20095;-73
2023/05/23 02:04:31;;;;;;;6.35;5.13;;;;;;;21.49;58.85;99253.53;4934134;28;20028;-73
2023/05/23 02:06:56;;;;;;;6.40;5.10;;;;;;;21.46;58.66;99259.88;4922680;28;20032;-73
2023/05/23 02:09:21;;;;;;;6.90;5.05;;;;;;;21.48;58.81;99258.91;4915016;29;20024;-73
2023/05/23 02:11:47;;;;;;;7.25;4.55;;;;;;;21.48;58.79;99262.44;4914865;29;20387;-73
2023/05/23 02:14:12;;;;;;;6.57;4.95;;;;;;;21.48;58.71;99259.78;4914574;29;20123;-74
2023/05/23 02:16:38;;;;;;;6.03;4.63;;;;;;;21.44;58.84;99253.84;4918365;29;20017;-73
2023/05/23 02:19:03;;;;;;;6.03;5.03;;;;;;;21.46;58.67;99259.03;4916775;28;20066;-73
2023/05/23 02:21:30;;;;;;;5.68;4.68;;;;;;;21.45;58.69;99255.53;4933927;28;20024;-73
2023/05/23 02:23:56;;;;;;;6.60;4.55;;;;;;;21.43;58.90;99257.44;4933745;29;20517;-73
2023/05/23 02:26:21;;;;;;;6.53;4.80;;;;;;;21.43;58.75;99257.44;4933881;29;20134;-73
2023/05/23 02:28:46;;;;;;;6.97;5.25;;;;;;;21.41;58.86;99251.38;4933493;28;20024;-73
2023/05/23 02:31:12;;;;;;;5.13;4.38;;;;;;;21.43;58.79;99257.44;4915961;29;20028;-73
2023/05/23 02:33:37;;;;;;;6.32;5.10;;;;;;;21.43;58.76;99246.81;4914759;29;20029;-72
2023/05/23 02:36:03;;;;;;;5.45;4.70;;;;;;;21.42;58.75;99254.88;4914600;29;20517;-73
2023/05/23 02:38:29;;;;;;;6.10;4.90;;;;;;;21.41;58.63;99258.50;4914613;29;20039;-73
2023/05/23 02:40:56;;;;;;;5.45;4.55;;;;;;;21.40;58.78;99251.50;4914453;29;20409;-73
2023/05/23 02:43:22;;;;;;;5.80;4.85;;;;;;;21.38;58.87;99251.59;4914064;29;20040;-72
2023/05/23 02:45:47;;;;;;;6.10;4.72;;;;;;;21.39;58.74;99250.63;4913985;29;20035;-72
2023/05/23 02:48:13;;;;;;;5.95;4.80;;;;;;;21.37;58.62;99241.06;4933419;28;20161;-73
2023/05/23 02:50:38;;;;;;;6.15;4.85;;;;;;;21.34;58.80;99247.41;4933149;28;20032;-73
2023/05/23 02:53:04;;;;;;;5.55;4.38;;;;;;;21.33;58.57;99253.69;4933337;29;20093;-73
2023/05/23 02:55:30;;;;;;;5.82;4.53;;;;;;;21.34;58.82;99252.72;4933355;28;20097;-72
2023/05/23 02:57:57;;;;;;;5.40;4.63;;;;;;;21.33;58.84;99266.97;4932965;29;20553;-72
2023/05/23 03:00:23;;;;;;;5.57;4.43;;;;;;;21.32;58.90;99259.94;4933260;29;20564;-73
2023/05/23 03:02:48;;;;;;;7.00;4.80;;;;;;;21.32;58.99;99259.94;4933360;29;20031;-73
2023/05/23 03:05:14;;;;;;;6.40;4.85;;;;;;;21.32;58.76;99258.13;4933336;29;20401;-73
2023/05/23 03:07:39;;;;;;;5.60;4.70;;;;;;;21.30;58.75;99267.16;4933225;29;20032;-73
2023/05/23 03:10:05;;;;;;;6.82;4.72;;;;;;;21.30;58.87;99252.09;4932512;29;20020;-73
2023/05/23 03:12:31;;;;;;;6.15;4.85;;;;;;;21.29;58.80;99254.84;4932759;29;20055;-72
2023/05/23 03:14:56;;;;;;;6.30;4.60;;;;;;;21.27;58.75;99254.09;4933062;28;20050;-73
2023/05/23 03:17:24;;;;;;;5.25;4.10;;;;;;;21.27;58.80;99260.28;4933030;28;20103;-73
2023/05/23 03:19:50;;;;;;;5.90;4.35;;;;;;;21.24;58.77;99265.75;4932876;28;20461;-73
2023/05/23 03:22:15;;;;;;;6.32;5.00;;;;;;;21.23;58.84;99256.09;4932866;28;20056;-73
2023/05/23 03:24:40;;;;;;;5.90;4.95;;;;;;;21.21;59.01;99262.47;4932939;29;20039;-73
2023/05/23 03:27:06;;;;;;;5.72;4.78;;;;;;;21.21;58.87;99257.16;4932593;29;20031;-73
2023/05/23 03:29:31;;;;;;;5.97;4.70;;;;;;;21.19;58.99;99250.16;4932934;29;20028;-73
2023/05/23 03:31:57;;;;;;;5.35;4.32;;;;;;;21.19;59.08;99249.28;4929747;28;20058;-73
2023/05/23 03:34:22;;;;;;;6.13;4.03;;;;;;;21.21;59.06;99251.84;4932898;28;20789;-73
2023/05/23 03:36:48;;;;;;;6.75;4.80;;;;;;;21.22;58.99;99253.53;4932859;29;20035;-73
2023/05/23 03:39:14;;;;;;;5.45;4.57;;;;;;;21.19;59.13;99254.59;4932626;28;20894;-73
2023/05/23 03:41:39;;;;;;;6.38;4.97;;;;;;;21.18;58.93;99253.75;4928675;28;20107;-73
2023/05/23 03:44:05;;;;;;;6.32;4.82;;;;;;;21.19;58.87;99265.19;4913655;29;20040;-73
2023/05/23 03:46:30;;;;;;;5.53;4.30;;;;;;;21.19;58.96;99273.16;4913656;29;20383;-73
2023/05/23 03:48:55;;;;;;;7.30;4.50;;;;;;;21.18;58.93;99268.81;4913455;29;20114;-73
2023/05/23 03:51:21;;;;;;;5.68;4.45;;;;;;;21.17;58.92;99273.25;4928727;29;20110;-73
2023/05/23 03:53:46;;;;;;;7.10;4.40;;;;;;;21.17;58.88;99262.63;4932715;29;20027;-73
2023/05/23 03:56:12;;;;;;;5.95;4.90;;;;;;;21.17;58.92;99267.94;4931872;29;20062;-73
2023/05/23 03:58:37;;;;;;;5.45;4.43;;;;;;;21.21;58.66;99262.47;4932373;29;20040;-73
2023/05/23 04:01:03;;;;;;;6.68;4.57;;;;;;;21.16;58.69;99266.25;4932534;29;20031;-73
2023/05/23 04:03:31;;;;;;;5.95;4.80;;;;;;;21.19;58.86;99276.69;4932099;28;20046;-73
2023/05/23 04:05:58;;;;;;;6.20;4.90;;;;;;;21.16;58.76;99274.22;4932359;29;20035;-72
2023/05/23 04:08:23;;;;;;;6.72;4.47;;;;;;;21.18;58.76;99285.59;4932302;28;20039;-73
2023/05/23 04:10:49;;;;;;;7.72;4.68;;;;;;;21.18;58.62;99271.47;4931958;29;20024;-72
2023/05/23 04:13:14;;;;;;;5.38;4.40;;;;;;;21.16;58.72;99276.03;4916573;29;20032;-73
2023/05/23 04:15:39;;;;;;;5.50;4.20;;;;;;;21.16;58.64;99282.16;4913107;29;20112;-73
2023/05/23 04:18:07;;;;;;;5.57;4.50;;;;;;;21.16;58.71;99287.47;4913110;29;20036;-74
2023/05/23 04:20:33;;;;;;;5.82;4.55;;;;;;;21.17;58.74;99283.03;4913167;29;20495;-73
2023/05/23 04:22:59;;;;;;;5.75;4.50;;;;;;;21.16;58.60;99282.16;4926448;28;20038;-72
2023/05/23 04:25:25;;;;;;;6.20;4.85;;;;;;;21.15;58.56;99290.22;4931886;28;20038;-73
2023/05/23 04:27:51;;;;;;;5.60;4.55;;;;;;;21.16;58.61;99294.59;4932134;28;20032;-72
2023/05/23 04:30:17;;;;;;;5.95;4.50;;;;;;;21.16;58.69;99286.66;4931884;29;20501;-73
2023/05/23 04:32:43;;;;;;;5.80;4.45;;;;;;;21.14;58.66;99289.38;4920775;29;20029;-72
2023/05/23 04:35:09;;;;;;;6.13;4.68;;;;;;;21.15;58.63;99287.56;4913034;29;20028;-73
2023/05/23 04:37:36;;;;;;;6.05;4.47;;;;;;;21.13;58.51;99294.78;4912333;29;20438;-72
2023/05/23 04:40:03;;;;;;;5.55;4.88;;;;;;;21.11;58.67;99294.88;4911313;29;20040;-72
2023/05/23 04:42:29;;;;;;;6.32;4.90;;;;;;;21.11;58.60;99294.03;4922222;29;20028;-73
2023/05/23 04:44:57;;;;;;;6.10;4.70;;;;;;;21.10;58.89;99279.91;4931964;28;20109;-72
2023/05/23 04:47:23;;;;;;;6.43;4.85;;;;;;;21.08;58.63;99284.47;4931924;28;20058;-72
2023/05/23 04:49:49;;;;;;;7.03;4.95;;;;;;;21.08;58.66;99279.19;4931900;29;20040;-73
2023/05/23 04:52:17;;;;;;;6.20;4.40;;;;;;;21.10;58.63;99276.44;4931359;29;20028;-73
2023/05/23 04:54:45;;;;;;;5.68;4.60;;;;;;;21.08;58.76;99279.19;4931582;29;20118;-73
2023/05/23 04:57:11;;;;;;;6.22;4.80;;;;;;;21.09;58.66;99285.31;4931918;29;20117;-73
2023/05/23 04:59:37;;;;;;;5.85;4.50;;;;;;;21.05;58.77;99296.13;4931384;29;20042;-73
2023/05/23 05:02:04;;;;;;;7.32;5.20;;;;;;;21.06;59.03;99291.66;4931624;29;20067;-73
2023/05/23 05:04:30;;;;;;;8.95;5.25;;;;;;;21.04;59.22;99296.22;4931718;28;20035;-72
2023/05/23 05:06:56;;;;;;;6.78;4.72;;;;;;;21.07;59.01;99298.69;4931123;28;20031;-73
2023/05/23 05:09:21;;;;;;;6.20;4.88;;;;;;;21.09;58.84;99302.09;4931084;29;20070;-73
2023/05/23 05:11:47;;;;;;;5.65;4.68;;;;;;;21.07;59.02;99311.97;4931609;29;20028;-73
2023/05/23 05:14:12;;;;;;;9.90;5.13;;;;;;;21.10;60.13;99319.72;4931697;29;20082;-72
2023/05/23 05:16:38;;;;;;;12.07;5.93;;;;;;;21.17;59.95;99313.06;4931794;29;20039;-73
2023/05/23 05:19:03;;;;;;;12.82;5.57;;;;;;;21.24;59.79;99320.63;4931329;29;20036;-73
2023/05/23 05:21:30;;;;;;;12.52;6.18;;;;;;;21.25;62.32;99322.34;4931469;29;20027;-73
2023/05/23 05:23:56;;;;;;;16.67;5.88;;;;;;;21.27;61.85;99331.91;4929539;29;20044;-72
2023/05/23 05:26:22;;;;;;;13.25;5.88;;;;;;;21.24;62.00;99339.19;4917293;29;20033;-72
2023/05/23 05:28:48;;;;;;;11.05;5.78;;;;;;;21.25;62.29;99344.41;4911729;29;20055;-73
2023/05/23 05:31:14;;;;;;;43.65;8.48;;;;;;;21.28;62.08;99338.91;4914106;29;20035;-72
2023/05/23 05:33:40;;;;;;;19.20;6.20;;;;;;;21.25;62.07;99343.59;4933615;29;20105;-72
2023/05/23 05:36:06;;;;;;;18.05;5.40;;;;;;;21.27;61.88;99341.66;4933819;29;20169;-73
2023/05/23 05:38:32;;;;;;;9.05;5.18;;;;;;;21.23;61.69;99340.16;4923054;29;20470;-72
2023/05/23 05:40:57;;;;;;;10.52;5.72;;;;;;;21.26;61.31;99340.81;4927486;29;20032;-72
2023/05/23 05:43:23;;;;;;;10.18;5.28;;;;;;;21.27;61.10;99336.34;4924559;28;20019;-72
2023/05/23 05:45:48;;;;;;;11.77;5.53;;;;;;;21.26;60.98;99334.66;4934443;29;20371;-70
2023/05/23 05:48:13;;;;;;;12.15;5.70;;;;;;;21.21;61.06;99342.91;4933970;29;20444;-73
2023/05/23 05:50:39;;;;;;;13.85;6.00;;;;;;;21.22;60.82;99338.44;4933983;29;20052;-72
2023/05/23 05:53:04;;;;;;;8.52;5.28;;;;;;;21.23;60.78;99335.72;4934287;28;20050;-73
2023/05/23 05:55:30;;;;;;;11.43;5.43;;;;;;;21.19;60.53;99334.19;4934156;28;20524;-72
2023/05/23 05:57:55;;;;;;;9.38;4.97;;;;;;;21.24;60.40;99341.84;4934067;28;20064;-72
2023/05/23 06:00:21;;;;;;;9.98;5.18;;;;;;;21.19;60.40;99340.38;4934263;29;20028;-72
2023/05/23 06:02:50;;;;;;;10.93;5.05;;;;;;;21.18;60.30;99341.31;4923491;29;20052;-73
2023/05/23 06:05:15;;;;;;;9.02;4.95;;;;;;;21.21;60.21;99347.38;4914812;29;20469;-72
2023/05/23 06:07:46;;;;;;;10.30;5.32;;;;;;;21.21;60.01;99339.41;4913673;29;20036;-72
2023/05/23 06:10:12;;;;;;;8.63;4.90;;;;;;;21.19;59.99;99335.06;4914972;29;20031;-72
2023/05/23 06:12:38;;;;;;;8.15;5.25;;;;;;;21.21;60.00;99339.41;4924065;28;20524;-72
2023/05/23 06:15:05;;;;;;;8.63;5.25;;;;;;;21.23;59.84;99332.19;4934028;28;20032;-72
2023/05/23 06:17:30;;;;;;;7.72;4.80;;;;;;;21.19;59.72;99332.41;4933839;28;20391;-72
2023/05/23 06:19:56;;;;;;;9.32;5.20;;;;;;;21.23;59.55;99329.53;4933442;29;20050;-72
2023/05/23 06:22:21;;;;;;;8.25;4.80;;;;;;;21.21;59.72;99336.75;4927128;28;20020;-71
2023/05/23 06:24:47;;;;;;;6.85;4.85;;;;;;;21.24;59.22;99332.09;4914982;29;20453;-72
2023/05/23 06:27:12;;;;;;;8.18;5.18;;;;;;;21.25;59.25;99332.97;4914835;29;20036;-72
2023/05/23 06:29:38;;;;;;;8.40;4.70;;;;;;;21.22;59.48;99333.16;4914903;29;20486;-72
2023/05/23 06:32:04;;;;;;;8.60;4.97;;;;;;;21.22;59.25;99327.84;4918857;28;20075;-72
2023/05/23 06:34:30;;;;;;;6.97;4.80;;;;;;;21.22;59.41;99333.16;4933334;29;20019;-72
2023/05/23 06:36:55;;;;;;;6.20;4.78;;;;;;;21.24;59.18;99333.88;4930340;29;20039;-68
2023/05/23 06:39:20;;;;;;;6.35;4.65;;;;;;;21.24;59.39;99339.19;4933375;28;20035;-68
2023/05/23 06:41:46;;;;;;;7.05;4.72;;;;;;;21.27;59.10;99336.34;4931709;29;20024;-67
2023/05/23 06:44:13;;;;;;;7.05;4.78;;;;;;;21.28;58.83;99328.31;4913286;29;20060;-68
2023/05/23 06:46:38;;;;;;;7.40;5.22;;;;;;;21.36;58.69;99334.91;4914486;29;20032;-67
2023/05/23 06:49:03;;;;;;;6.65;4.72;;;;;;;21.33;58.48;99333.31;4914220;29;20028;-67
2023/05/23 06:51:30;;;;;;;7.93;4.55;;;;;;;21.36;58.49;99335.75;4930725;29;20028;-68
2023/05/23 06:53:55;;;;;;;6.40;4.40;;;;;;;21.33;58.55;99336.81;4933278;29;20024;-68
2023/05/23 06:56:25;;;;;;;8.38;5.70;;;;;;;21.35;58.43;99346.50;4933066;29;20075;-69
2023/05/23 06:58:50;;;;;;;6.93;5.03;;;;;;;21.39;58.44;99354.16;4933307;29;20039;-68
2023/05/23 07:01:15;;;;;;;6.53;4.65;;;;;;;21.37;58.45;99353.41;4933267;29;20414;-67
2023/05/23 07:03:43;;;;;;;7.65;4.53;;;;;;;21.37;58.35;99360.50;4932866;29;20023;-67
2023/05/23 07:06:08;;;;;;;7.15;4.78;;;;;;;21.40;58.05;99366.47;4933358;29;20019;-68
2023/05/23 07:08:34;;;;;;;7.65;5.22;;;;;;;21.36;58.34;99356.97;4933238;29;20437;-69
2023/05/23 07:11:00;;;;;;;7.53;4.78;;;;;;;21.41;58.05;99348.75;4933126;29;20024;-66
2023/05/23 07:13:25;;;;;;;6.50;4.55;;;;;;;21.42;58.09;99351.31;4933060;29;20024;-66
2023/05/23 07:15:50;;;;;;;7.05;4.82;;;;;;;21.42;57.70;99353.97;4933109;29;20079;-66
2023/05/23 07:18:16;;;;;;;5.80;4.50;;;;;;;21.41;57.94;99349.56;4932629;29;20504;-68
2023/05/23 07:20:41;;;;;;;6.85;4.90;;;;;;;21.45;57.71;99355.53;4932854;29;20023;-67
2023/05/23 07:23:07;;;;;;;7.22;5.05;;;;;;;21.45;57.68;99356.41;4932984;29;20099;-67
2023/05/23 07:25:32;;;;;;;7.82;5.03;;;;;;;21.42;57.74;99361.94;4915707;28;20089;-67
2023/05/23 07:27:58;;;;;;;5.95;4.50;;;;;;;21.46;57.75;99357.25;4932836;28;20111;-68
2023/05/23 07:30:23;;;;;;;7.35;4.82;;;;;;;21.46;57.77;99351.97;4932912;29;20106;-67
2023/05/23 07:32:51;;;;;;;8.00;4.80;;;;;;;21.48;57.50;99357.13;4932336;28;20460;-67
2023/05/23 07:35:16;;;;;;;8.02;4.82;;;;;;;21.49;57.63;99356.22;4932690;28;20414;-68
2023/05/23 07:37:42;;;;;;;7.75;4.60;;;;;;;21.49;57.43;99356.22;4932807;29;20024;-67
2023/05/23 07:40:10;;;;;;;6.43;4.93;;;;;;;21.49;57.68;99362.34;4932780;29;20115;-68
2023/05/23 07:42:36;;;;;;;7.13;4.72;;;;;;;21.49;57.42;99366.84;4932735;28;20055;-67
2023/05/23 07:45:02;;;;;;;6.65;4.53;;;;;;;21.50;57.38;99365.88;4932808;28;20510;-67
2023/05/23 07:47:28;;;;;;;7.53;4.80;;;;;;;21.50;57.41;99364.06;4932252;28;20024;-67
2023/05/23 07:49:53;;;;;;;6.13;4.78;;;;;;;21.51;57.52;99364.91;4932297;29;20066;-67
2023/05/23 07:52:19;;;;;;;8.82;4.90;;;;;;;21.51;57.29;99372.88;4932710;29;20028;-67
2023/05/23 07:54:45;;;;;;;6.55;4.85;;;;;;;21.47;57.55;99372.25;4931760;29;20035;-68
2023/05/23 07:57:10;;;;;;;7.05;4.82;;;;;;;21.52;57.29;99372.78;4932515;29;20028;-67
2023/05/23 07:59:36;;;;;;;7.57;4.78;;;;;;;21.50;57.36;99374.69;4932158;29;20067;-67
2023/05/23 08:02:02;;;;;;;7.03;5.05;;;;;;;21.49;57.37;99372.97;4932112;29;20032;-68
2023/05/23 08:04:28;;;;;;;8.25;4.93;;;;;;;21.52;57.01;99371.94;4932047;29;20031;-68
2023/05/23 08:06:54;;;;;;;6.28;4.65;;;;;;;21.52;57.23;99371.94;4932452;29;20036;-68
2023/05/23 08:09:22;;;;;;;6.22;5.05;;;;;;;21.52;57.21;99382.56;4932341;29;20077;-67
2023/05/23 08:11:47;;;;;;;7.32;4.90;;;;;;;21.50;57.44;99379.16;4932458;29;20031;-68
2023/05/23 08:14:13;;;;;;;6.53;4.63;;;;;;;21.50;57.56;99376.50;4932206;29;20451;-67
2023/05/23 08:16:38;;;;;;;8.65;5.10;;;;;;;21.51;57.48;99363.13;4931948;29;20393;-67
2023/05/23 08:19:03;;;;;;;7.15;5.25;;;;;;;21.52;57.33;99370.13;4932054;29;20032;-68
2023/05/23 08:21:29;;;;;;;7.25;4.55;;;;;;;21.54;57.26;99367.34;4932156;29;20028;-68
2023/05/23 08:23:54;;;;;;;5.55;4.55;;;;;;;21.52;57.46;99363.97;4932115;29;20024;-67
2023/05/23 08:26:20;;;;;;;6.57;5.13;;;;;;;21.49;57.40;99366.84;4932259;28;20067;-66
2023/05/23 08:28:46;;;;;;;5.97;4.70;;;;;;;21.51;57.34;99368.44;4931979;29;20035;-68
2023/05/23 08:31:11;;;;;;;7.55;4.50;;;;;;;21.53;57.16;99378.94;4931810;29;20020;-69
2023/05/23 08:33:36;;;;;;;6.30;4.82;;;;;;;21.53;57.21;99373.63;4931909;29;20055;-67
2023/05/23 08:36:02;;;;;;;7.82;4.60;;;;;;;21.56;56.86;99384.06;4932167;29;20036;-66
2023/05/23 08:38:27;;;;;;;7.75;4.57;;;;;;;21.56;57.12;99379.59;4931923;29;20034;-68
2023/05/23 08:40:55;;;;;;;8.90;5.32;;;;;;;21.56;57.08;99374.28;4913875;29;20060;-67
2023/05/23 08:43:20;;;;;;;5.97;4.65;;;;;;;21.59;56.98;99373.22;4912997;29;20032;-66
2023/05/23 08:45:47;;;;;;;7.03;4.85;;;;;;;21.59;56.87;99368.78;4912608;29;20036;-67
2023/05/23 08:48:17;;;;;;;6.65;5.05;;;;;;;21.59;56.99;99359.94;4924487;28;20043;-68
2023/05/23 08:50:46;;;;;;;6.63;5.00;;;;;;;21.59;56.98;99362.59;4931557;28;20127;-67
2023/05/23 08:53:21;;;;;;;8.40;4.93;;;;;;;21.59;57.20;99363.47;4931835;29;20032;-67
2023/05/23 08:55:50;;;;;;;5.85;4.90;;;;;;;21.60;57.02;99364.34;4931482;28;20135;-67
2023/05/23 08:58:19;;;;;;;6.50;4.95;;;;;;;21.62;56.87;99357.09;4931628;29;20058;-67
2023/05/23 09:00:45;;;;;;;6.07;5.15;;;;;;;21.62;56.89;99367.72;4931348;29;20422;-67
2023/05/23 09:03:11;;;;;;;6.78;4.90;;;;;;;21.63;56.92;99357.94;4931627;29;20106;-68
2023/05/23 09:05:37;;;;;;;6.35;4.80;;;;;;;21.61;56.84;99363.38;4931410;29;20420;-68
2023/05/23 09:08:02;;;;;;;7.22;5.13;;;;;;;21.61;57.24;99360.72;4933701;29;20028;-68
2023/05/23 09:10:28;;;;;;;8.02;5.32;;;;;;;21.62;56.98;99359.75;4934998;29;20046;-66
2023/05/23 09:12:54;;;;;;;7.53;5.13;;;;;;;21.64;56.90;99363.16;4934814;28;20032;-68
2023/05/23 09:15:21;;;;;;;9.23;5.15;;;;;;;21.64;56.86;99363.16;4934448;29;20055;-67
2023/05/23 09:17:46;;;;;;;6.03;4.82;;;;;;;21.66;57.21;99363.06;4934598;29;20031;-67
2023/05/23 09:20:14;;;;;;;7.07;4.95;;;;;;;21.66;56.70;99363.06;4934801;28;20027;-67
2023/05/23 09:22:40;;;;;;;6.53;5.45;;;;;;;21.66;56.82;99358.63;4934575;29;20039;-67
2023/05/23 09:25:06;;;;;;;5.78;4.90;;;;;;;21.67;56.69;99362.97;4934817;28;20032;-67
2023/05/23 09:27:32;;;;;;;5.90;4.85;;;;;;;21.67;56.79;99362.97;4934378;28;20158;-67
2023/05/23 09:30:08;;;;;;;6.55;4.60;;;;;;;21.69;56.79;99363.72;4934796;28;20063;-68
2023/05/23 09:32:33;;;;;;;6.65;4.60;;;;;;;21.70;57.16;99360.13;4934641;28;20035;-67
2023/05/23 09:35:04;;;;;;;8.00;5.63;;;;;;;21.67;56.64;99362.97;4914414;29;20032;-68
2023/05/23 09:37:29;;;;;;;6.07;4.70;;;;;;;21.69;56.83;99366.38;4915587;29;20044;-67
2023/05/23 09:39:55;;;;;;;5.93;4.82;;;;;;;21.69;56.72;99371.69;4915658;29;20036;-67
2023/05/23 09:42:22;;;;;;;6.40;4.85;;;;;;;21.72;56.74;99373.31;4914198;29;20024;-67
2023/05/23 09:44:48;;;;;;;7.45;4.90;;;;;;;21.70;56.60;99360.13;4915526;29;20570;-67
2023/05/23 09:47:15;;;;;;;5.82;5.13;;;;;;;21.70;56.55;99368.09;4915597;29;20024;-67
2023/05/23 09:49:42;;;;;;;6.22;4.70;;;;;;;21.71;56.74;99363.66;4917251;29;20024;-68
2023/05/23 09:52:08;;;;;;;7.38;4.50;;;;;;;21.72;56.59;99374.19;4934212;29;20030;-65
2023/05/23 09:54:33;;;;;;;6.45;4.90;;;;;;;21.73;56.55;99367.03;4934219;29;20028;-67
2023/05/23 09:57:01;;;;;;;6.80;5.32;;;;;;;21.75;56.66;99372.28;4933767;29;20075;-67
2023/05/23 09:59:36;;;;;;;5.85;4.65;;;;;;;21.76;56.52;99368.66;4933954;29;20425;-68
2023/05/23 10:02:03;;;;;;;5.50;4.57;;;;;;;21.76;56.30;99368.66;4934161;29;20023;-68
2023/05/23 10:04:31;;;;;;;5.95;4.80;;;;;;;21.78;56.56;99366.78;4934151;29;20031;-67
2023/05/23 10:07:03;;;;;;;6.57;4.93;;;;;;;21.79;56.47;99373.78;4933972;28;20413;-67
2023/05/23 10:09:35;;;;;;;6.63;4.63;;;;;;;21.79;56.53;99358.69;4934148;29;20030;-68
2023/05/23 10:12:25;;;;;;;6.22;4.30;;;;;;;21.80;56.41;99376.31;4933603;29;20436;-66
2023/05/23 10:14:56;;;;;;;6.28;4.32;;;;;;;21.80;56.41;99375.47;4933972;28;20061;-68
2023/05/23 10:17:36;;;;;;;5.70;4.38;;;;;;;21.81;56.39;99374.53;4933782;28;20032;-68
2023/05/23 10:20:08;;;;;;;6.10;4.47;;;;;;;21.80;56.42;99373.66;4930452;28;20074;-68
2023/05/23 10:22:35;;;;;;;5.97;4.50;;;;;;;21.82;56.27;99373.56;4918983;29;20028;-68
2023/05/23 10:25:04;;;;;;;6.95;4.55;;;;;;;21.82;56.28;99363.78;4933762;29;20103;-68
2023/05/23 10:27:30;;;;;;;6.97;4.82;;;;;;;21.83;56.21;99359.31;4933319;29;20035;-66
2023/05/23 10:29:56;;;;;;;5.95;4.32;;;;;;;21.84;56.45;99363.72;4933757;29;20402;-67
2023/05/23 10:32:22;;;;;;;5.85;4.72;;;;;;;21.83;56.30;99354.88;4933849;29;20028;-67
2023/05/23 10:34:54;;;;;;;6.03;4.70;;;;;;;21.85;56.30;99357.44;4933454;29;20032;-67
2023/05/23 10:37:26;;;;;;;6.03;4.50;;;;;;;21.86;56.38;99354.69;4933668;29;20032;-68
2023/05/23 10:40:00;;;;;;;6.18;4.78;;;;;;;21.88;56.27;99357.22;4933714;28;20035;-68
2023/05/23 10:42:55;;;;;;;6.47;4.95;;;;;;;21.87;56.37;99360.81;4933627;29;20521;-68
2023/05/23 10:45:22;;;;;;;6.05;4.88;;;;;;;21.88;56.36;99361.69;4933497;28;20093;-68
2023/05/23 10:47:49;;;;;;;6.03;4.30;;;;;;;21.88;56.40;99365.19;4933554;29;20111;-67
2023/05/23 10:50:40;;;;;;;6.20;4.47;;;;;;;21.89;56.14;99358.91;4925415;28;20034;-67
2023/05/23 10:53:05;;;;;;;5.70;4.55;;;;;;;21.91;56.19;99361.47;4933621;29;20035;-68
2023/05/23 10:55:33;;;;;;;5.00;3.90;;;;;;;21.92;56.15;99361.38;4919872;29;20123;-65
2023/05/23 10:58:21;;;;;;;5.40;4.28;;;;;;;21.92;56.20;99358.72;4933211;29;20023;-67
2023/05/23 11:00:54;;;;;;;5.70;4.20;;;;;;;21.93;56.05;99355.09;4933123;29;20107;-68
2023/05/23 11:03:44;;;;;;;6.63;4.78;;;;;;;21.94;56.18;99351.50;4933289;29;20031;-67
2023/05/23 11:06:27;;;;;;;5.25;4.40;;;;;;;21.93;56.18;99360.41;4933150;29;20098;-66
2023/05/23 11:09:04;;;;;;;6.57;4.93;;;;;;;21.95;56.21;99352.34;4932533;29;20047;-67
2023/05/23 11:12:04;;;;;;;5.95;4.53;;;;;;;21.96;56.18;99346.94;4933045;29;20031;-66
2023/05/23 11:14:36;;;;;;;5.78;4.78;;;;;;;21.97;56.30;99335.34;4933229;28;20035;-68
2023/05/23 11:17:11;;;;;;;6.25;4.45;;;;;;;21.98;56.29;99330.88;4933019;28;20619;-68
2023/05/23 11:19:37;;;;;;;5.63;4.65;;;;;;;21.99;56.17;99327.28;4933049;29;20046;-68
2023/05/23 11:22:04;;;;;;;5.85;4.40;;;;;;;21.99;56.38;99330.78;4933124;28;20387;-68
2023/05/23 11:24:52;;;;;;;5.22;4.22;;;;;;;22.03;56.24;99333.25;4932672;29;20053;-68
2023/05/23 11:27:26;;;;;;;5.70;4.10;;;;;;;22.03;56.47;99333.25;4912618;29;20063;-69
2023/05/23 11:30:08;;;;;;;6.10;4.55;;;;;;;22.05;56.18;99336.63;4913456;29;20116;-67
2023/05/23 11:32:34;;;;;;;5.53;4.40;;;;;;;22.06;56.16;99328.56;4913896;29;20032;-67
2023/05/23 11:35:05;;;;;;;7.15;5.00;;;;;;;22.07;56.29;99329.41;4913934;29;20508;-67